Terminal Aerodrome Forecast
Issued by NWS Springfield, MO

Home | Current Version | Previous Version | Text Only | Print | Product List | Glossary On
Versions: 1 2 3 4 5 6 7 8 9 10 11 12 13 14 15 16 17 18 19 20 21 22 23 24 25 26 27 28 29
681
FTUS43 KSGF 260520
TAFSGF
TAF
KSGF 260520Z 2606/2706 27007KT P6SM OVC015
     FM260700 26005KT 6SM BR OVC009
     FM261000 28006KT 4SM BR OVC005
     FM261500 24006KT P6SM BKN010
     FM261800 25006KT P6SM SCT045
     FM262100 23006KT P6SM SCT200
     FM270200 14005KT P6SM -SHRA SCT040 BKN070=

USA.gov is the U.S. government's official web portal to all federal, state and local government web resources and services.